Argenta, Illinois
Current Conditions -  °F | °C
As of 7:54 PM on Friday 24 Oct 2014 (Local Time) from KDEC Reporting Station
Clear Clear  
Wind Chill: 56°   Ceiling: Unl
Heat Index: 56°   Visibility: 9mi
Dew Point: 52°   Wind: 7mph
Humidity: 87%   Direction: 190°S
Pressure: 30.01"   Gusts: NA
Location:  39.98°N, 88.82°W
Report Text: KDEC 250054Z 19006KT 9SM CLR 13/11 A3001 RMK AO2 SLP162 T01330111
Loading
Personal Weather Stations






























Interactive Weather Map
Tropical Storm Tracking
New forecast layout! Learn more

10-Day Weather Forecast

Advertisements
Track Severe Weather on mobile